createdAt,value
2018-03-28T00:00:45.293Z,80.07
2018-03-28T00:03:15.828Z,80.42
2018-03-28T00:05:45.427Z,80.89
2018-03-28T00:08:15.145Z,81.57
2018-03-28T00:10:46.144Z,81.72
2018-03-28T00:13:16.106Z,81.76
2018-03-28T00:15:47.452Z,81.76
2018-03-28T00:18:18.026Z,81.67
2018-03-28T00:20:47.554Z,81.13
2018-03-28T00:23:17.921Z,81.18
2018-03-28T00:25:48.127Z,81.19
2018-03-28T00:28:17.615Z,81.97
2018-03-28T00:30:47.110Z,81.83
2018-03-28T00:33:17.733Z,81.96
2018-03-28T00:35:48.116Z,82.32
2018-03-28T00:38:17.794Z,82.34
2018-03-28T00:40:47.317Z,82.04
2018-03-28T00:43:17.384Z,82.20
2018-03-28T00:45:48.057Z,82.18
2018-03-28T00:48:17.696Z,82.24
2018-03-28T00:50:47.248Z,82.45
2018-03-28T00:53:17.632Z,82.57
2018-03-28T00:55:47.132Z,82.72
2018-03-28T00:58:16.778Z,83.17
2018-03-28T01:00:48.245Z,82.91
2018-03-28T01:03:17.861Z,83.14
2018-03-28T01:05:47.975Z,82.64
2018-03-28T01:08:17.458Z,82.20
2018-03-28T01:10:48.149Z,82.50
2018-03-28T01:13:17.620Z,82.61
2018-03-28T01:15:47.367Z,82.76
2018-03-28T01:18:17.045Z,82.99
2018-03-28T01:20:46.674Z,83.17
2018-03-28T01:23:16.145Z,83.46
2018-03-28T01:25:46.915Z,83.51
2018-03-28T01:28:16.390Z,83.36
2018-03-28T01:30:45.880Z,83.95
2018-03-28T01:33:15.876Z,84.14
2018-03-28T01:35:45.465Z,84.10
2018-03-28T01:38:15.060Z,84.42
2018-03-28T01:40:44.685Z,84.89
2018-03-28T01:43:14.153Z,84.63
2018-03-28T01:45:43.614Z,84.82
2018-03-28T01:48:13.575Z,85.49
2018-03-28T01:50:43.097Z,86.39
2018-03-28T01:53:12.820Z,86.10
2018-03-28T01:55:42.320Z,86.29
2018-03-28T01:58:11.791Z,86.85
2018-03-28T02:00:41.310Z,86.36
2018-03-28T02:03:10.845Z,86.37
2018-03-28T02:05:40.656Z,86.01
2018-03-28T02:08:11.242Z,86.10
2018-03-28T02:10:40.991Z,86.14
2018-03-28T02:13:10.855Z,86.63
2018-03-28T02:15:41.540Z,86.84
2018-03-28T02:18:12.040Z,86.91
2018-03-28T02:20:41.973Z,86.92
2018-03-28T02:23:11.545Z,86.62
2018-03-28T02:25:41.831Z,86.82
2018-03-28T02:28:11.387Z,87.02
2018-03-28T02:30:41.662Z,87.23
2018-03-28T02:33:11.529Z,87.52
2018-03-28T02:35:41.486Z,87.75
2018-03-28T02:38:11.193Z,88.24
2018-03-28T02:40:40.757Z,88.01
2018-03-28T02:43:11.394Z,87.70
2018-03-28T02:45:41.637Z,88.23
2018-03-28T02:48:11.574Z,88.89
2018-03-28T02:50:41.087Z,89.29
2018-03-28T02:53:11.797Z,88.88
2018-03-28T02:55:41.467Z,89.93
2018-03-28T02:58:12.001Z,89.14
2018-03-28T03:00:41.551Z,89.56
2018-03-28T03:03:11.118Z,89.32
2018-03-28T03:05:41.596Z,89.93
2018-03-28T03:08:11.984Z,89.71
2018-03-28T03:10:42.427Z,89.61
2018-03-28T03:13:11.890Z,90.18
2018-03-28T03:15:42.432Z,90.11
2018-03-28T03:18:12.667Z,90.16
2018-03-28T03:20:42.994Z,89.77
2018-03-28T03:23:12.483Z,89.83
2018-03-28T03:25:42.965Z,89.60
2018-03-28T03:28:13.310Z,89.84
2018-03-28T03:30:42.844Z,90.29
2018-03-28T03:33:12.514Z,90.27
2018-03-28T03:35:41.968Z,90.56
2018-03-28T03:38:12.540Z,90.53
2018-03-28T03:40:42.028Z,91.65
2018-03-28T03:43:11.554Z,90.99
2018-03-28T03:45:41.082Z,91.24
2018-03-28T03:48:10.770Z,91.01
2018-03-28T03:50:40.486Z,90.71
2018-03-28T03:53:10.294Z,91.09
2018-03-28T03:55:39.869Z,91.54
2018-03-28T03:58:09.422Z,91.51
2018-03-28T04:00:38.971Z,91.39
2018-03-28T04:03:09.228Z,91.66
2018-03-28T04:05:38.751Z,92.03
2018-03-28T04:08:08.431Z,91.98
2018-03-28T04:10:38.177Z,92.08
2018-03-28T04:13:07.857Z,92.13
2018-03-28T04:15:38.366Z,92.50
2018-03-28T04:18:09.105Z,92.43
2018-03-28T04:20:38.585Z,92.50
2018-03-28T04:23:09.177Z,92.35
2018-03-28T04:25:38.783Z,92.31
2018-03-28T04:28:13.883Z,92.33
2018-03-28T04:30:44.649Z,91.81
2018-03-28T04:33:14.369Z,91.77
2018-03-28T04:35:44.682Z,91.31
2018-03-28T04:38:14.477Z,91.34
2018-03-28T04:40:45.235Z,91.55
2018-03-28T04:43:14.821Z,91.42
2018-03-28T04:45:44.351Z,91.85
2018-03-28T04:48:15.340Z,91.55
2018-03-28T04:50:45.822Z,92.54
2018-03-28T04:53:16.294Z,92.87
2018-03-28T04:55:46.781Z,91.67
2018-03-28T04:58:16.593Z,91.38
2018-03-28T05:00:46.990Z,91.27
2018-03-28T05:03:16.733Z,91.96
2018-03-28T05:05:47.148Z,91.49
2018-03-28T05:08:17.584Z,91.10
2018-03-28T05:10:47.089Z,91.32
2018-03-28T05:13:16.585Z,90.89
2018-03-28T05:15:46.397Z,90.96
2018-03-28T05:18:16.600Z,91.69
2018-03-28T05:20:46.134Z,91.46
2018-03-28T05:23:15.642Z,91.23
2018-03-28T05:25:46.805Z,91.85
2018-03-28T05:28:17.778Z,92.41
2018-03-28T05:30:48.155Z,92.72
2018-03-28T05:33:18.018Z,92.68
2018-03-28T05:35:48.356Z,92.97
2018-03-28T05:38:18.104Z,92.73
2018-03-28T05:40:47.717Z,92.78
2018-03-28T05:43:17.307Z,92.68
2018-03-28T05:45:46.789Z,92.74
2018-03-28T05:48:17.410Z,92.60
2018-03-28T05:50:47.716Z,92.51
2018-03-28T05:53:17.494Z,92.45
2018-03-28T05:55:47.427Z,92.28
2018-03-28T05:58:16.913Z,92.20
2018-03-28T06:00:46.424Z,92.00
2018-03-28T06:03:17.197Z,92.00
2018-03-28T06:05:46.769Z,91.94
2018-03-28T06:08:17.076Z,91.73
2018-03-28T06:10:46.688Z,91.63
2018-03-28T06:13:16.905Z,91.42
2018-03-28T06:15:47.302Z,90.95
2018-03-28T06:18:16.785Z,90.33
2018-03-28T06:20:46.728Z,90.18
2018-03-28T06:23:16.569Z,89.42
2018-03-28T06:25:46.290Z,89.74
2018-03-28T06:28:16.032Z,89.38
2018-03-28T06:30:46.138Z,89.23
2018-03-28T06:33:17.708Z,88.59
2018-03-28T06:35:48.427Z,88.31
2018-03-28T06:38:18.349Z,87.86
2018-03-28T06:40:48.960Z,86.98
2018-03-28T06:43:34.356Z,85.75
2018-03-28T06:46:30.888Z,82.27
2018-03-28T06:49:22.121Z,80.57
2018-03-28T06:51:52.301Z,79.63
2018-03-28T06:54:22.594Z,79.04
2018-03-28T06:56:52.141Z,79.72
2018-03-28T06:59:22.086Z,79.21
2018-03-28T07:01:51.775Z,77.23
2018-03-28T07:04:21.894Z,78.02
2018-03-28T07:06:51.522Z,77.09
2018-03-28T07:09:21.702Z,76.73
2018-03-28T07:11:52.148Z,76.20
2018-03-28T07:14:22.587Z,75.69
2018-03-28T07:16:52.239Z,77.95
2018-03-28T07:19:21.998Z,79.35
2018-03-28T07:21:51.715Z,78.68
2018-03-28T07:24:21.285Z,77.80
2018-03-28T07:26:51.335Z,74.92
2018-03-28T07:29:22.570Z,73.95
2018-03-28T07:31:52.081Z,73.77
2018-03-28T07:34:21.602Z,71.49
2018-03-28T07:36:51.126Z,73.99
2018-03-28T07:39:20.623Z,74.78
2018-03-28T07:41:50.520Z,76.77
2018-03-28T07:44:20.159Z,76.19
2018-03-28T07:46:51.133Z,75.06
2018-03-28T07:49:20.798Z,73.42
2018-03-28T07:51:51.046Z,74.23
2018-03-28T07:54:21.493Z,72.96
2018-03-28T07:56:51.872Z,70.74
2018-03-28T07:59:21.556Z,66.85
2018-03-28T08:01:59.629Z,64.50
2018-03-28T08:04:29.928Z,62.17
2018-03-28T08:06:59.842Z,62.60
2018-03-28T08:09:30.946Z,60.15
2018-03-28T08:12:00.733Z,54.20
2018-03-28T08:14:30.274Z,53.72
2018-03-28T08:16:59.921Z,56.01
2018-03-28T08:19:41.419Z,53.38
2018-03-28T08:22:11.675Z,56.11
2018-03-28T08:24:42.075Z,58.31
2018-03-28T08:27:12.551Z,60.93
2018-03-28T08:29:42.054Z,59.57
2018-03-28T08:32:11.724Z,60.50
2018-03-28T08:34:41.204Z,59.67
2018-03-28T08:37:10.876Z,60.51
2018-03-28T08:39:40.355Z,60.27
2018-03-28T08:42:09.949Z,60.04
2018-03-28T08:44:39.639Z,60.69
2018-03-28T08:47:09.414Z,62.41
2018-03-28T08:49:39.228Z,61.45
2018-03-28T08:52:08.989Z,62.40
2018-03-28T08:54:39.243Z,62.89
2018-03-28T08:57:08.740Z,59.72
2018-03-28T08:59:38.813Z,56.52
2018-03-28T09:02:08.456Z,55.92
2018-03-28T09:04:38.868Z,58.55
2018-03-28T09:07:08.535Z,60.72
2018-03-28T09:09:50.347Z,61.85
2018-03-28T09:12:21.669Z,62.05
2018-03-28T09:14:51.260Z,60.73
2018-03-28T09:17:21.078Z,59.16
2018-03-28T09:19:50.969Z,57.66
2018-03-28T09:22:21.191Z,53.60
2018-03-28T09:24:51.740Z,53.41
2018-03-28T09:27:21.873Z,55.55
2018-03-28T09:29:51.488Z,55.35
2018-03-28T09:32:21.704Z,54.81
2018-03-28T09:34:51.635Z,55.25
2018-03-28T09:37:21.582Z,50.54
2018-03-28T09:39:51.316Z,48.75
2018-03-28T09:42:33.485Z,46.64
2018-03-28T09:45:04.507Z,49.60
2018-03-28T09:47:34.171Z,49.37
2018-03-28T09:50:03.910Z,49.32
2018-03-28T09:52:33.790Z,48.71
2018-03-28T09:55:04.275Z,47.57
2018-03-28T09:57:33.833Z,46.01
2018-03-28T10:00:03.426Z,45.59
2018-03-28T10:02:48.826Z,41.39
2018-03-28T10:05:18.510Z,45.94
2018-03-28T10:07:50.965Z,47.17
2018-03-28T10:10:20.710Z,47.09
2018-03-28T10:12:51.479Z,47.14
2018-03-28T10:15:23.866Z,47.44
2018-03-28T10:17:53.576Z,49.53
2018-03-28T10:20:26.321Z,52.65
2018-03-28T10:22:55.842Z,48.49
2018-03-28T10:25:26.070Z,48.77
2018-03-28T10:27:55.951Z,43.94
2018-03-28T10:30:30.705Z,45.33
2018-03-28T10:33:00.432Z,45.18
2018-03-28T10:35:30.106Z,46.73
2018-03-28T10:37:59.654Z,42.23
2018-03-28T10:40:31.893Z,42.84
2018-03-28T10:43:03.227Z,42.99
2018-03-28T10:45:33.622Z,43.53
2018-03-28T10:48:03.418Z,44.86
2018-03-28T10:50:33.124Z,47.41
2018-03-28T10:53:03.659Z,48.52
2018-03-28T10:55:33.159Z,46.98
2018-03-28T10:58:02.663Z,50.64
2018-03-28T11:00:32.497Z,49.43
2018-03-28T11:03:18.854Z,48.37
2018-03-28T11:05:48.401Z,48.00
2018-03-28T11:18:37.413Z,41.47
2018-03-28T11:21:07.241Z,43.75
2018-03-28T11:23:36.982Z,43.21
2018-03-28T11:26:06.633Z,44.63
2018-03-28T11:28:36.179Z,43.30
2018-03-28T11:31:05.874Z,43.21
2018-03-28T11:33:35.583Z,42.43
2018-03-28T11:36:05.460Z,41.94
2018-03-28T11:38:35.118Z,41.96
2018-03-28T11:41:04.601Z,43.88
2018-03-28T11:43:34.176Z,39.95
2018-03-28T11:46:04.955Z,43.46
2018-03-28T11:48:34.836Z,46.15
2018-03-28T11:51:06.206Z,44.96
2018-03-28T11:53:35.886Z,42.96
2018-03-28T11:56:06.250Z,41.74
2018-03-28T11:58:36.852Z,40.01
2018-03-28T12:01:06.403Z,41.54
2018-03-28T12:03:36.923Z,40.70
2018-03-28T12:06:06.538Z,41.57
2018-03-28T12:08:36.066Z,38.87
2018-03-28T12:11:05.674Z,37.30
2018-03-28T12:13:35.356Z,39.70
2018-03-28T12:16:05.027Z,40.67
2018-03-28T12:18:34.749Z,40.98
2018-03-28T12:21:05.815Z,40.99
2018-03-28T12:23:37.489Z,38.86
2018-03-28T12:26:07.062Z,40.66
2018-03-28T12:28:36.900Z,40.32
2018-03-28T12:31:06.787Z,39.61
2018-03-28T12:33:36.539Z,40.82
2018-03-28T12:36:06.157Z,43.15
2018-03-28T12:38:36.651Z,44.05
2018-03-28T12:41:06.167Z,44.44
2018-03-28T12:43:35.969Z,44.67
2018-03-28T12:46:05.528Z,44.69
2018-03-28T12:48:35.037Z,44.82
2018-03-28T12:51:05.934Z,45.23
2018-03-28T12:53:35.609Z,44.53
2018-03-28T12:56:05.148Z,44.46
2018-03-28T12:58:34.792Z,44.29
2018-03-28T13:01:04.623Z,43.97
2018-03-28T13:03:35.753Z,44.00
2018-03-28T13:06:05.413Z,44.01
2018-03-28T13:08:35.006Z,43.62
2018-03-28T13:11:04.801Z,44.00
2018-03-28T13:13:34.523Z,44.42
2018-03-28T13:16:04.415Z,44.70
2018-03-28T13:18:35.166Z,45.06
2018-03-28T13:21:05.676Z,46.11
2018-03-28T13:23:36.135Z,44.74
2018-03-28T13:26:06.096Z,43.29
2018-03-28T13:28:35.794Z,42.58
2018-03-28T13:31:05.342Z,44.09
2018-03-28T13:33:35.014Z,44.95
2018-03-28T13:36:04.604Z,45.89
2018-03-28T13:38:34.119Z,45.61
2018-03-28T13:41:03.661Z,45.67
2018-03-28T13:43:34.083Z,46.11
2018-03-28T13:46:03.907Z,46.53
2018-03-28T13:48:40.377Z,47.20
2018-03-28T13:51:15.064Z,46.55
2018-03-28T13:54:01.866Z,47.97
2018-03-28T13:56:40.984Z,46.63
2018-03-28T13:59:30.019Z,45.83
2018-03-28T14:02:03.704Z,46.15
2018-03-28T14:04:33.161Z,46.04
2018-03-28T14:07:03.049Z,47.16
2018-03-28T14:09:33.623Z,46.34
2018-03-28T14:12:03.347Z,46.18
2018-03-28T14:14:33.041Z,45.85
2018-03-28T14:17:02.562Z,46.26
2018-03-28T14:19:32.105Z,46.41
2018-03-28T14:22:02.013Z,46.48
2018-03-28T14:24:32.523Z,47.15
2018-03-28T14:27:02.314Z,47.62
2018-03-28T14:29:32.680Z,47.38
2018-03-28T14:32:03.042Z,47.47
2018-03-28T14:34:32.887Z,46.81
2018-03-28T14:37:02.584Z,47.23
2018-03-28T14:39:32.790Z,46.25
2018-03-28T14:42:02.383Z,46.31
2018-03-28T14:44:31.987Z,45.91
2018-03-28T14:47:02.733Z,47.06
2018-03-28T14:49:32.374Z,46.06
2018-03-28T14:52:02.184Z,46.51
2018-03-28T14:54:32.463Z,46.32
2018-03-28T14:57:03.136Z,46.46
2018-03-28T14:59:33.590Z,45.74
2018-03-28T15:02:03.139Z,46.10
2018-03-28T15:04:32.756Z,45.79
2018-03-28T15:07:02.496Z,45.16
2018-03-28T15:09:32.179Z,45.91
2018-03-28T15:12:01.820Z,46.27
2018-03-28T15:14:31.520Z,46.68
2018-03-28T15:17:01.413Z,46.91
2018-03-28T15:19:31.021Z,47.15
2018-03-28T15:22:01.375Z,46.71
2018-03-28T15:24:31.188Z,46.47
2018-03-28T15:27:00.850Z,45.95
2018-03-28T15:29:31.434Z,45.90
2018-03-28T15:32:01.253Z,46.10
2018-03-28T15:34:30.742Z,46.80
2018-03-28T15:37:00.568Z,46.95
2018-03-28T15:39:30.178Z,47.04
2018-03-28T15:41:59.872Z,47.68
2018-03-28T15:44:29.482Z,48.98
2018-03-28T15:47:00.071Z,50.11
2018-03-28T15:49:31.132Z,50.32
2018-03-28T15:52:01.290Z,50.98
2018-03-28T15:54:31.628Z,52.01
2018-03-28T15:57:01.206Z,53.26
2018-03-28T15:59:31.010Z,54.09
2018-03-28T16:02:01.042Z,54.76
2018-03-28T16:04:30.672Z,55.57
2018-03-28T16:07:00.690Z,56.02
2018-03-28T16:09:30.496Z,56.41
2018-03-28T16:12:00.378Z,57.26
2018-03-28T16:14:30.450Z,58.49
2018-03-28T16:17:00.452Z,59.01
2018-03-28T16:19:30.794Z,59.33
2018-03-28T16:22:01.191Z,59.87
2018-03-28T16:24:31.645Z,59.65
2018-03-28T16:27:01.983Z,60.47
2018-03-28T16:29:32.819Z,60.54
2018-03-28T16:32:03.747Z,61.03
2018-03-28T16:34:41.044Z,61.30
2018-03-28T16:37:11.229Z,61.87
2018-03-28T16:39:41.588Z,61.67
2018-03-28T16:42:16.177Z,59.92
2018-03-28T16:45:40.802Z,60.44
2018-03-28T16:55:14.174Z,63.07
2018-03-28T16:57:45.209Z,63.54
2018-03-28T17:00:15.834Z,63.67
2018-03-28T17:02:46.264Z,63.92
2018-03-28T17:05:17.316Z,64.46
2018-03-28T17:07:49.543Z,65.00
2018-03-28T17:10:19.796Z,65.31
2018-03-28T17:12:49.939Z,65.66
2018-03-28T17:15:22.587Z,66.39
2018-03-28T17:17:52.659Z,66.76
2018-03-28T17:20:24.387Z,67.15
2018-03-28T17:22:54.757Z,67.83
2018-03-28T17:25:26.224Z,68.11
2018-03-28T17:27:57.097Z,68.77
2018-03-28T17:30:32.109Z,69.03
2018-03-28T17:33:03.277Z,69.50
2018-03-28T17:35:33.833Z,69.67
2018-03-28T17:38:04.872Z,70.08
2018-03-28T17:40:35.219Z,70.47
2018-03-28T17:43:05.728Z,70.84
2018-03-28T17:45:36.159Z,70.84
2018-03-28T17:48:06.551Z,71.38
2018-03-28T17:50:37.185Z,71.74
2018-03-28T17:53:08.799Z,72.13
2018-03-28T17:55:39.709Z,72.34
2018-03-28T17:58:10.034Z,72.81
2018-03-28T18:00:40.057Z,73.15
2018-03-28T18:03:10.414Z,73.56
2018-03-28T18:05:40.668Z,73.79
2018-03-28T18:08:12.817Z,74.21
2018-03-28T18:10:44.196Z,74.63
2018-03-28T18:13:15.138Z,74.77
2018-03-28T18:15:45.246Z,75.11
2018-03-28T18:18:16.285Z,75.22
2018-03-28T18:20:46.389Z,75.55
2018-03-28T18:23:16.629Z,75.64
2018-03-28T18:25:48.460Z,75.90
2018-03-28T18:28:18.558Z,76.02
2018-03-28T18:30:48.836Z,76.34
2018-03-28T18:33:19.897Z,76.76
2018-03-28T18:35:50.104Z,77.03
2018-03-28T18:38:20.417Z,77.08
2018-03-28T18:40:50.570Z,77.70
2018-03-28T18:43:20.707Z,78.13
2018-03-28T18:45:50.687Z,77.59
2018-03-28T18:48:22.844Z,77.79
2018-03-28T18:50:54.163Z,78.08
2018-03-28T18:53:24.860Z,78.17
2018-03-28T18:55:55.484Z,78.38
2018-03-28T18:58:26.895Z,78.35
2018-03-28T19:00:57.265Z,78.31
2018-03-28T19:03:27.497Z,78.46
2018-03-28T19:05:57.796Z,79.04
2018-03-28T19:08:28.737Z,79.22
2018-03-28T19:10:59.766Z,79.28
2018-03-28T19:13:29.924Z,79.82
2018-03-28T19:16:00.329Z,80.12
2018-03-28T19:18:30.554Z,80.45
2018-03-28T19:21:02.396Z,80.50
2018-03-28T19:23:32.620Z,80.56
2018-03-28T19:26:02.844Z,80.04
2018-03-28T19:28:33.170Z,79.67
2018-03-28T19:31:04.262Z,79.93
2018-03-28T19:33:37.418Z,79.81
2018-03-28T19:36:08.559Z,80.07
2018-03-28T19:38:38.982Z,80.23
2018-03-28T19:41:11.771Z,80.22
2018-03-28T19:43:42.090Z,80.36
2018-03-28T19:46:15.269Z,80.45
2018-03-28T19:48:46.213Z,80.53
2018-03-28T19:51:16.659Z,81.04
2018-03-28T19:53:46.862Z,81.08
2018-03-28T19:56:17.716Z,80.90
2018-03-28T19:58:48.654Z,81.15
2018-03-28T20:01:20.708Z,81.90
2018-03-28T20:03:51.135Z,81.66
2018-03-28T20:06:22.321Z,81.91
2018-03-28T20:08:53.321Z,81.98
2018-03-28T20:11:25.082Z,81.58
2018-03-28T20:13:56.335Z,81.60
2018-03-28T20:16:27.290Z,81.73
2018-03-28T20:18:57.432Z,82.10
2018-03-28T20:21:27.606Z,82.09
2018-03-28T20:23:58.566Z,82.49
2018-03-28T20:26:29.586Z,83.21
2018-03-28T20:29:03.992Z,82.90
2018-03-28T20:31:34.336Z,82.81
2018-03-28T20:34:06.620Z,83.51
2018-03-28T20:36:38.052Z,84.67
2018-03-28T20:39:08.316Z,84.39
2018-03-28T20:41:38.514Z,84.43
2018-03-28T20:44:10.056Z,84.20
2018-03-28T20:46:41.340Z,83.70
2018-03-28T20:49:11.625Z,83.22
2018-03-28T20:51:43.237Z,82.69
2018-03-28T20:54:15.817Z,82.28
2018-03-28T20:56:49.250Z,81.91
2018-03-28T20:59:19.583Z,81.38
2018-03-28T21:01:51.913Z,81.14
2018-03-28T21:04:21.769Z,81.19
2018-03-28T21:06:51.671Z,81.15
2018-03-28T21:09:21.257Z,81.32
2018-03-28T21:11:50.817Z,81.39
2018-03-28T21:14:21.206Z,81.43
2018-03-28T21:16:51.292Z,81.53
2018-03-28T21:19:20.768Z,82.06
2018-03-28T21:21:51.539Z,83.20
2018-03-28T21:24:21.008Z,83.67
2018-03-28T21:26:51.456Z,84.53
2018-03-28T21:29:21.001Z,84.03
2018-03-28T21:31:50.655Z,83.84
2018-03-28T21:34:20.840Z,82.94
2018-03-28T21:36:52.988Z,82.81
2018-03-28T21:39:24.332Z,82.46
2018-03-28T21:41:53.793Z,81.99
2018-03-28T21:44:24.049Z,81.79
2018-03-28T21:46:53.539Z,81.93
2018-03-28T21:49:23.055Z,82.09
2018-03-28T21:51:52.720Z,82.35
2018-03-28T21:54:22.396Z,82.23
2018-03-28T21:56:51.919Z,82.47
2018-03-28T21:59:21.715Z,82.66
2018-03-28T22:01:51.441Z,82.98
2018-03-28T22:04:23.037Z,83.03
2018-03-28T22:06:52.688Z,82.80
2018-03-28T22:09:22.208Z,82.02
2018-03-28T22:11:51.911Z,81.56
2018-03-28T22:14:21.553Z,81.41
2018-03-28T22:16:51.226Z,81.19
2018-03-28T22:19:21.244Z,81.32
2018-03-28T22:21:50.842Z,81.21
2018-03-28T22:24:21.078Z,81.55
2018-03-28T22:26:50.600Z,81.78
2018-03-28T22:29:20.294Z,81.95
2018-03-28T22:31:50.528Z,81.74
2018-03-28T22:34:20.229Z,81.99
2018-03-28T22:36:50.239Z,81.98
2018-03-28T22:39:21.454Z,81.58
2018-03-28T22:41:52.424Z,81.73
2018-03-28T22:44:22.253Z,81.66
2018-03-28T22:46:53.398Z,82.04
2018-03-28T22:49:22.905Z,81.93
2018-03-28T22:51:53.981Z,81.73
2018-03-28T22:54:25.961Z,82.16
2018-03-28T22:56:56.594Z,82.28
2018-03-28T22:59:29.005Z,82.54
2018-03-28T23:01:59.285Z,82.60
2018-03-28T23:04:28.936Z,82.89
2018-03-28T23:07:00.028Z,82.66
2018-03-28T23:09:30.513Z,82.60
2018-03-28T23:12:00.267Z,82.65
2018-03-28T23:14:30.487Z,82.67
2018-03-28T23:17:00.223Z,82.75
2018-03-28T23:19:29.968Z,82.94
2018-03-28T23:21:59.676Z,82.91
2018-03-28T23:24:29.449Z,82.66
2018-03-28T23:27:00.003Z,82.74
2018-03-28T23:29:29.610Z,82.88
2018-03-28T23:31:59.464Z,82.65
2018-03-28T23:34:28.943Z,82.69
2018-03-28T23:36:58.496Z,82.78
2018-03-28T23:39:28.812Z,82.62
2018-03-28T23:42:00.133Z,82.65
2018-03-28T23:44:30.520Z,82.84
2018-03-28T23:47:00.842Z,83.14
2018-03-28T23:49:30.679Z,83.15
2018-03-28T23:52:00.119Z,83.34
2018-03-28T23:54:29.699Z,83.25
2018-03-28T23:56:59.413Z,83.23
2018-03-28T23:59:28.890Z,83.51
